sensor_id;sensor_type;location;lat;lon;timestamp;pressure;altitude;pressure_sealevel;temperature;humidity
59103;BME280;43999;51.660;5.616;2022-11-13T00:00:15;102501.38;;;8.47;100.00
59103;BME280;43999;51.660;5.616;2022-11-13T00:03:01;102506.56;;;8.50;100.00
59103;BME280;43999;51.660;5.616;2022-11-13T00:05:47;102501.28;;;8.53;100.00
59103;BME280;43999;51.660;5.616;2022-11-13T00:08:32;102494.31;;;8.54;100.00
59103;BME280;43999;51.660;5.616;2022-11-13T00:11:19;102502.97;;;8.56;100.00
59103;BME280;43999;51.660;5.616;2022-11-13T00:14:05;102493.41;;;8.55;100.00
59103;BME280;43999;51.660;5.616;2022-11-13T00:16:51;102495.19;;;8.53;100.00
59103;BME280;43999;51.660;5.616;2022-11-13T00:19:37;102493.50;;;8.50;100.00
59103;BME280;43999;51.660;5.616;2022-11-13T00:22:23;102486.59;;;8.48;100.00
59103;BME280;43999;51.660;5.616;2022-11-13T00:25:09;102480.53;;;8.42;100.00
59103;BME280;43999;51.660;5.616;2022-11-13T00:27:54;102479.78;;;8.37;100.00
59103;BME280;43999;51.660;5.616;2022-11-13T00:30:40;102474.63;;;8.33;100.00
59103;BME280;43999;51.660;5.616;2022-11-13T00:33:26;102466.88;;;8.28;100.00
59103;BME280;43999;51.660;5.616;2022-11-13T00:36:32;102466.16;;;8.20;100.00
59103;BME280;43999;51.660;5.616;2022-11-13T00:39:18;102462.72;;;8.16;100.00
59103;BME280;43999;51.660;5.616;2022-11-13T00:42:04;102459.31;;;8.13;100.00
59103;BME280;43999;51.660;5.616;2022-11-13T00:44:50;102455.91;;;8.09;100.00
59103;BME280;43999;51.660;5.616;2022-11-13T00:47:35;102463.81;;;8.04;100.00
59103;BME280;43999;51.660;5.616;2022-11-13T00:50:21;102456.94;;;7.99;100.00
59103;BME280;43999;51.660;5.616;2022-11-13T00:53:07;102454.41;;;7.94;100.00
59103;BME280;43999;51.660;5.616;2022-11-13T00:55:58;102452.78;;;7.88;100.00
59103;BME280;43999;51.660;5.616;2022-11-13T00:58:45;102445.06;;;7.82;100.00
59103;BME280;43999;51.660;5.616;2022-11-13T01:01:31;102448.56;;;7.80;100.00
59103;BME280;43999;51.660;5.616;2022-11-13T01:04:16;102449.50;;;7.76;100.00
59103;BME280;43999;51.660;5.616;2022-11-13T01:07:02;102451.28;;;7.74;100.00
59103;BME280;43999;51.660;5.616;2022-11-13T01:09:51;102446.09;;;7.72;100.00
59103;BME280;43999;51.660;5.616;2022-11-13T01:12:37;102442.66;;;7.70;100.00
59103;BME280;43999;51.660;5.616;2022-11-13T01:15:23;102440.91;;;7.69;100.00
59103;BME280;43999;51.660;5.616;2022-11-13T01:18:10;102442.69;;;7.67;100.00
59103;BME280;43999;51.660;5.616;2022-11-13T01:21:06;102437.50;;;7.65;100.00
59103;BME280;43999;51.660;5.616;2022-11-13T01:23:56;102446.09;;;7.70;100.00
59103;BME280;43999;51.660;5.616;2022-11-13T01:26:41;102441.69;;;7.74;100.00
59103;BME280;43999;51.660;5.616;2022-11-13T01:29:27;102441.72;;;7.72;100.00
59103;BME280;43999;51.660;5.616;2022-11-13T01:32:13;102434.81;;;7.70;100.00
59103;BME280;43999;51.660;5.616;2022-11-13T01:34:59;102436.53;;;7.69;100.00
59103;BME280;43999;51.660;5.616;2022-11-13T01:37:45;102426.09;;;7.71;100.00
59103;BME280;43999;51.660;5.616;2022-11-13T01:40:30;102429.59;;;7.70;100.00
59103;BME280;43999;51.660;5.616;2022-11-13T01:43:37;102422.69;;;7.66;100.00
59103;BME280;43999;51.660;5.616;2022-11-13T01:49:39;102423.66;;;7.60;100.00
59103;BME280;43999;51.660;5.616;2022-11-13T01:52:35;102419.34;;;7.59;100.00
59103;BME280;43999;51.660;5.616;2022-11-13T01:55:25;102419.38;;;7.56;100.00
59103;BME280;43999;51.660;5.616;2022-11-13T01:58:12;102416.78;;;7.56;100.00
59103;BME280;43999;51.660;5.616;2022-11-13T02:00:58;102408.06;;;7.56;100.00
59103;BME280;43999;51.660;5.616;2022-11-13T02:03:44;102399.41;;;7.53;100.00
59103;BME280;43999;51.660;5.616;2022-11-13T02:06:39;102411.59;;;7.54;100.00
59103;BME280;43999;51.660;5.616;2022-11-13T02:09:34;102401.19;;;7.53;100.00
59103;BME280;43999;51.660;5.616;2022-11-13T02:12:35;102399.41;;;7.53;100.00
59103;BME280;43999;51.660;5.616;2022-11-13T02:15:26;102395.94;;;7.54;100.00
59103;BME280;43999;51.660;5.616;2022-11-13T02:18:17;102398.53;;;7.56;100.00
59103;BME280;43999;51.660;5.616;2022-11-13T02:21:31;102399.34;;;7.58;100.00
59103;BME280;43999;51.660;5.616;2022-11-13T02:24:43;102389.75;;;7.59;100.00
59103;BME280;43999;51.660;5.616;2022-11-13T02:27:44;102387.13;;;7.60;100.00
59103;BME280;43999;51.660;5.616;2022-11-13T02:30:34;102384.53;;;7.60;100.00
59103;BME280;43999;51.660;5.616;2022-11-13T02:33:32;102384.53;;;7.60;100.00
59103;BME280;43999;51.660;5.616;2022-11-13T02:36:20;102386.22;;;7.63;100.00
59103;BME280;43999;51.660;5.616;2022-11-13T02:39:11;102382.75;;;7.64;100.00
59103;BME280;43999;51.660;5.616;2022-11-13T02:41:58;102381.84;;;7.65;100.00
59103;BME280;43999;51.660;5.616;2022-11-13T02:44:44;102371.38;;;7.66;100.00
59103;BME280;43999;51.660;5.616;2022-11-13T02:47:29;102367.84;;;7.69;100.00
59103;BME280;43999;51.660;5.616;2022-11-13T02:50:17;102373.94;;;7.69;100.00
59103;BME280;43999;51.660;5.616;2022-11-13T02:53:03;102367.84;;;7.70;100.00
59103;BME280;43999;51.660;5.616;2022-11-13T02:55:50;102367.78;;;7.74;100.00
59103;BME280;43999;51.660;5.616;2022-11-13T02:58:36;102371.09;;;7.82;100.00
59103;BME280;43999;51.660;5.616;2022-11-13T03:01:22;102372.78;;;7.86;100.00
59103;BME280;43999;51.660;5.616;2022-11-13T03:04:08;102365.78;;;7.88;100.00
59103;BME280;43999;51.660;5.616;2022-11-13T03:06:54;102362.25;;;7.90;100.00
59103;BME280;43999;51.660;5.616;2022-11-13T03:09:40;102368.31;;;7.93;100.00
59103;BME280;43999;51.660;5.616;2022-11-13T03:12:26;102375.25;;;7.94;100.00
59103;BME280;43999;51.660;5.616;2022-11-13T03:15:12;102378.72;;;7.94;100.00
59103;BME280;43999;51.660;5.616;2022-11-13T03:18:03;102373.50;;;7.94;100.00
59103;BME280;43999;51.660;5.616;2022-11-13T03:20:50;102366.44;;;7.99;100.00
59103;BME280;43999;51.660;5.616;2022-11-13T03:23:40;102360.38;;;7.97;100.00
59103;BME280;43999;51.660;5.616;2022-11-13T03:26:29;102356.13;;;7.92;100.00
59103;BME280;43999;51.660;5.616;2022-11-13T03:29:15;102350.97;;;7.90;100.00
59103;BME280;43999;51.660;5.616;2022-11-13T03:32:00;102351.06;;;7.85;100.00
59103;BME280;43999;51.660;5.616;2022-11-13T03:34:47;102340.66;;;7.82;100.00
59103;BME280;43999;51.660;5.616;2022-11-13T03:37:33;102332.88;;;7.81;100.00
59103;BME280;43999;51.660;5.616;2022-11-13T03:40:18;102337.22;;;7.80;100.00
59103;BME280;43999;51.660;5.616;2022-11-13T03:43:04;102343.31;;;7.81;100.00
59103;BME280;43999;51.660;5.616;2022-11-13T03:45:50;102334.53;;;7.83;100.00
59103;BME280;43999;51.660;5.616;2022-11-13T03:48:36;102335.25;;;7.92;100.00
59103;BME280;43999;51.660;5.616;2022-11-13T03:51:22;102331.63;;;8.00;100.00
59103;BME280;43999;51.660;5.616;2022-11-13T03:54:08;102327.28;;;7.99;100.00
59103;BME280;43999;51.660;5.616;2022-11-13T03:56:53;102323.00;;;7.97;100.00
59103;BME280;43999;51.660;5.616;2022-11-13T03:59:39;102320.50;;;7.90;100.00
59103;BME280;43999;51.660;5.616;2022-11-13T04:02:25;102318.81;;;7.86;100.00
59103;BME280;43999;51.660;5.616;2022-11-13T04:05:11;102325.75;;;7.89;100.00
59103;BME280;43999;51.660;5.616;2022-11-13T04:07:57;102311.75;;;7.92;100.00
59103;BME280;43999;51.660;5.616;2022-11-13T04:10:43;102311.88;;;7.87;100.00
59103;BME280;43999;51.660;5.616;2022-11-13T04:13:29;102311.88;;;7.87;100.00
59103;BME280;43999;51.660;5.616;2022-11-13T04:16:15;102306.69;;;7.85;100.00
59103;BME280;43999;51.660;5.616;2022-11-13T04:19:01;102309.25;;;7.88;100.00
59103;BME280;43999;51.660;5.616;2022-11-13T04:21:47;102312.75;;;7.86;100.00
59103;BME280;43999;51.660;5.616;2022-11-13T04:24:32;102299.72;;;7.86;100.00
59103;BME280;43999;51.660;5.616;2022-11-13T04:27:18;102296.31;;;7.82;100.00
59103;BME280;43999;51.660;5.616;2022-11-13T04:30:05;102291.16;;;7.79;100.00
59103;BME280;43999;51.660;5.616;2022-11-13T04:32:51;102283.38;;;7.76;100.00
59103;BME280;43999;51.660;5.616;2022-11-13T04:35:37;102284.28;;;7.74;100.00
59103;BME280;43999;51.660;5.616;2022-11-13T04:38:23;102275.66;;;7.70;100.00
59103;BME280;43999;51.660;5.616;2022-11-13T04:41:12;102276.59;;;7.66;100.00
59103;BME280;43999;51.660;5.616;2022-11-13T04:44:16;102276.66;;;7.63;100.00
59103;BME280;43999;51.660;5.616;2022-11-13T04:47:02;102271.53;;;7.58;100.00
59103;BME280;43999;51.660;5.616;2022-11-13T04:49:48;102278.53;;;7.56;100.00
59103;BME280;43999;51.660;5.616;2022-11-13T04:52:34;102271.63;;;7.52;100.00
59103;BME280;43999;51.660;5.616;2022-11-13T04:55:19;102268.25;;;7.47;100.00
59103;BME280;43999;51.660;5.616;2022-11-13T04:58:05;102263.09;;;7.44;100.00
59103;BME280;43999;51.660;5.616;2022-11-13T05:00:51;102257.94;;;7.41;100.00
59103;BME280;43999;51.660;5.616;2022-11-13T05:03:37;102259.69;;;7.39;100.00
59103;BME280;43999;51.660;5.616;2022-11-13T05:06:22;102261.44;;;7.38;100.00
59103;BME280;43999;51.660;5.616;2022-11-13T05:09:10;102264.06;;;7.36;100.00
59103;BME280;43999;51.660;5.616;2022-11-13T05:11:55;102261.50;;;7.35;100.00
59103;BME280;43999;51.660;5.616;2022-11-13T05:14:41;102267.63;;;7.32;100.00
59103;BME280;43999;51.660;5.616;2022-11-13T05:17:27;102265.06;;;7.29;100.00
59103;BME280;43999;51.660;5.616;2022-11-13T05:20:13;102254.72;;;7.25;100.00
59103;BME280;43999;51.660;5.616;2022-11-13T05:22:58;102247.78;;;7.25;100.00
59103;BME280;43999;51.660;5.616;2022-11-13T05:25:44;102252.16;;;7.22;100.00
59103;BME280;43999;51.660;5.616;2022-11-13T05:28:30;102247.88;;;7.19;100.00
59103;BME280;43999;51.660;5.616;2022-11-13T05:31:16;102253.16;;;7.14;100.00
59103;BME280;43999;51.660;5.616;2022-11-13T05:34:03;102248.00;;;7.11;100.00
59103;BME280;43999;51.660;5.616;2022-11-13T05:36:50;102235.94;;;7.04;100.00
59103;BME280;43999;51.660;5.616;2022-11-13T05:39:36;102232.56;;;6.99;100.00
59103;BME280;43999;51.660;5.616;2022-11-13T05:42:22;102229.19;;;6.92;100.00
59103;BME280;43999;51.660;5.616;2022-11-13T05:45:09;102225.81;;;6.87;100.00
59103;BME280;43999;51.660;5.616;2022-11-13T05:47:55;102219.78;;;6.84;100.00
59103;BME280;43999;51.660;5.616;2022-11-13T05:50:41;102221.63;;;6.77;100.00
59103;BME280;43999;51.660;5.616;2022-11-13T05:53:27;102225.16;;;6.73;100.00
59103;BME280;43999;51.660;5.616;2022-11-13T05:56:30;102220.06;;;6.65;100.00
59103;BME280;43999;51.660;5.616;2022-11-13T05:59:17;102225.38;;;6.59;100.00
59103;BME280;43999;51.660;5.616;2022-11-13T06:02:03;102222.84;;;6.54;100.00
59103;BME280;43999;51.660;5.616;2022-11-13T06:04:49;102220.31;;;6.50;100.00
59103;BME280;43999;51.660;5.616;2022-11-13T06:07:39;102221.22;;;6.45;100.00
59103;BME280;43999;51.660;5.616;2022-11-13T06:10:25;102224.78;;;6.40;100.00
59103;BME280;43999;51.660;5.616;2022-11-13T06:13:10;102220.50;;;6.36;100.00
59103;BME280;43999;51.660;5.616;2022-11-13T06:16:05;102213.63;;;6.30;100.00
59103;BME280;43999;51.660;5.616;2022-11-13T06:19:04;102217.19;;;6.26;100.00
59103;BME280;43999;51.660;5.616;2022-11-13T06:21:51;102218.94;;;6.22;100.00
59103;BME280;43999;51.660;5.616;2022-11-13T06:24:37;102207.72;;;6.19;100.00
59103;BME280;43999;51.660;5.616;2022-11-13T06:27:23;102219.03;;;6.15;100.00
59103;BME280;43999;51.660;5.616;2022-11-13T06:30:09;102213.91;;;6.08;100.00
59103;BME280;43999;51.660;5.616;2022-11-13T06:32:56;102208.78;;;6.04;100.00
59103;BME280;43999;51.660;5.616;2022-11-13T06:35:42;102209.72;;;6.00;100.00
59103;BME280;43999;51.660;5.616;2022-11-13T06:38:32;102206.22;;;5.96;100.00
59103;BME280;43999;51.660;5.616;2022-11-13T06:41:22;102203.72;;;5.90;100.00
59103;BME280;43999;51.660;5.616;2022-11-13T06:44:10;102208.09;;;5.86;100.00
59103;BME280;43999;51.660;5.616;2022-11-13T06:46:55;102208.13;;;5.83;100.00
59103;BME280;43999;51.660;5.616;2022-11-13T06:49:41;102208.19;;;5.79;100.00
59103;BME280;43999;51.660;5.616;2022-11-13T06:52:27;102211.69;;;5.74;100.00
59103;BME280;43999;51.660;5.616;2022-11-13T06:55:12;102209.13;;;5.71;100.00
59103;BME280;43999;51.660;5.616;2022-11-13T06:57:58;102197.06;;;5.67;100.00
59103;BME280;43999;51.660;5.616;2022-11-13T07:00:44;102197.97;;;5.62;100.00
59103;BME280;43999;51.660;5.616;2022-11-13T07:03:29;102194.59;;;5.55;100.00
59103;BME280;43999;51.660;5.616;2022-11-13T07:06:19;102187.69;;;5.51;100.00
59103;BME280;43999;51.660;5.616;2022-11-13T07:09:07;102187.75;;;5.45;100.00
59103;BME280;43999;51.660;5.616;2022-11-13T07:11:53;102188.69;;;5.39;100.00
59103;BME280;43999;51.660;5.616;2022-11-13T07:14:38;102188.75;;;5.33;100.00
59103;BME280;43999;51.660;5.616;2022-11-13T07:17:24;102194.88;;;5.29;100.00
59103;BME280;43999;51.660;5.616;2022-11-13T07:20:10;102191.47;;;5.25;100.00
59103;BME280;43999;51.660;5.616;2022-11-13T07:22:57;102194.13;;;5.19;100.00
59103;BME280;43999;51.660;5.616;2022-11-13T07:25:44;102189.81;;;5.15;100.00
59103;BME280;43999;51.660;5.616;2022-11-13T07:28:30;102195.06;;;5.10;100.00
59103;BME280;43999;51.660;5.616;2022-11-13T07:31:16;102186.41;;;5.08;100.00
59103;BME280;43999;51.660;5.616;2022-11-13T07:34:03;102189.03;;;5.07;100.00
59103;BME280;43999;51.660;5.616;2022-11-13T07:36:49;102187.31;;;5.06;100.00
59103;BME280;43999;51.660;5.616;2022-11-13T07:39:34;102187.31;;;5.06;100.00
59103;BME280;43999;51.660;5.616;2022-11-13T07:42:20;102195.06;;;5.07;100.00
59103;BME280;43999;51.660;5.616;2022-11-13T07:45:06;102189.00;;;5.08;100.00
59103;BME280;43999;51.660;5.616;2022-11-13T07:48:00;102182.06;;;5.09;100.00
59103;BME280;43999;51.660;5.616;2022-11-13T07:50:47;102177.72;;;5.11;100.00
59103;BME280;43999;51.660;5.616;2022-11-13T07:53:33;102185.44;;;5.17;100.00
59103;BME280;43999;51.660;5.616;2022-11-13T07:56:20;102187.13;;;5.23;100.00
59103;BME280;43999;51.660;5.616;2022-11-13T07:59:07;102181.03;;;5.27;100.00
59103;BME280;43999;51.660;5.616;2022-11-13T08:01:53;102177.50;;;5.32;100.00
59103;BME280;43999;51.660;5.616;2022-11-13T08:04:39;102175.69;;;5.37;100.00
59103;BME280;43999;51.660;5.616;2022-11-13T08:07:25;102180.88;;;5.41;100.00
59103;BME280;43999;51.660;5.616;2022-11-13T08:10:11;102176.50;;;5.46;100.00
59103;BME280;43999;51.660;5.616;2022-11-13T08:13:06;102174.69;;;5.51;100.00
59103;BME280;43999;51.660;5.616;2022-11-13T08:15:53;102176.41;;;5.55;100.00
59103;BME280;43999;51.660;5.616;2022-11-13T08:18:39;102181.53;;;5.61;100.00
59103;BME280;43999;51.660;5.616;2022-11-13T08:21:24;102177.13;;;5.66;100.00
59103;BME280;43999;51.660;5.616;2022-11-13T08:24:10;102177.06;;;5.71;100.00
59103;BME280;43999;51.660;5.616;2022-11-13T08:26:56;102173.53;;;5.77;100.00
59103;BME280;43999;51.660;5.616;2022-11-13T08:29:42;102163.91;;;5.83;100.00
59103;BME280;43999;51.660;5.616;2022-11-13T08:32:27;102161.22;;;5.89;100.00
59103;BME280;43999;51.660;5.616;2022-11-13T08:35:13;102162.94;;;5.93;100.00
59103;BME280;43999;51.660;5.616;2022-11-13T08:38:07;102156.75;;;6.02;100.00
59103;BME280;43999;51.660;5.616;2022-11-13T08:41:00;102156.56;;;6.16;100.00
59103;BME280;43999;51.660;5.616;2022-11-13T08:43:54;102159.00;;;6.27;100.00
59103;BME280;43999;51.660;5.616;2022-11-13T08:46:40;102156.25;;;6.36;100.00
59103;BME280;43999;51.660;5.616;2022-11-13T08:49:26;102161.34;;;6.45;100.00
59103;BME280;43999;51.660;5.616;2022-11-13T08:52:11;102156.88;;;6.54;100.00
59103;BME280;43999;51.660;5.616;2022-11-13T08:54:57;102155.00;;;6.62;100.00
59103;BME280;43999;51.660;5.616;2022-11-13T08:57:43;102142.69;;;6.72;100.00
59103;BME280;43999;51.660;5.616;2022-11-13T09:00:31;102146.81;;;6.85;100.00
59103;BME280;43999;51.660;5.616;2022-11-13T09:03:18;102134.34;;;7.01;100.00
59103;BME280;43999;51.660;5.616;2022-11-13T09:06:06;102143.63;;;7.17;100.00
59103;BME280;43999;51.660;5.616;2022-11-13T09:08:53;102135.41;;;7.39;100.00
59103;BME280;43999;51.660;5.616;2022-11-13T09:11:39;102136.63;;;7.63;100.00
59103;BME280;43999;51.660;5.616;2022-11-13T09:14:25;102140.53;;;7.84;100.00
59103;BME280;43999;51.660;5.616;2022-11-13T09:17:12;102134.06;;;8.01;100.00
59103;BME280;43999;51.660;5.616;2022-11-13T09:19:58;102130.22;;;8.17;100.00
59103;BME280;43999;51.660;5.616;2022-11-13T09:23:05;102134.28;;;8.31;100.00
59103;BME280;43999;51.660;5.616;2022-11-13T09:25:52;102131.47;;;8.40;100.00
59103;BME280;43999;51.660;5.616;2022-11-13T09:28:38;102136.50;;;8.49;100.00
59103;BME280;43999;51.660;5.616;2022-11-13T09:31:23;102134.50;;;8.59;100.00
59103;BME280;43999;51.660;5.616;2022-11-13T09:34:09;102129.03;;;8.68;100.00
59103;BME280;43999;51.660;5.616;2022-11-13T09:36:55;102129.59;;;8.81;100.00
59103;BME280;43999;51.660;5.616;2022-11-13T09:39:41;102124.13;;;8.90;100.00
59103;BME280;43999;51.660;5.616;2022-11-13T09:42:28;102128.25;;;8.99;100.00
59103;BME280;43999;51.660;5.616;2022-11-13T09:45:16;102124.56;;;9.08;100.00
59103;BME280;43999;51.660;5.616;2022-11-13T09:48:16;102117.38;;;9.14;100.00
59103;BME280;43999;51.660;5.616;2022-11-13T09:51:19;102123.16;;;9.26;100.00
59103;BME280;43999;51.660;5.616;2022-11-13T09:54:15;102124.72;;;9.33;100.00
59103;BME280;43999;51.660;5.616;2022-11-13T09:57:30;102124.38;;;9.45;100.00
59103;BME280;43999;51.660;5.616;2022-11-13T10:00:27;102118.69;;;9.61;97.25
59103;BME280;43999;51.660;5.616;2022-11-13T10:03:39;102120.88;;;9.76;97.34
59103;BME280;43999;51.660;5.616;2022-11-13T10:13:51;102117.28;;;12.29;95.50
59103;BME280;43999;51.660;5.616;2022-11-13T10:23:18;102107.00;;;15.09;81.69
59103;BME280;43999;51.660;5.616;2022-11-13T10:26:15;102112.03;;;15.80;79.28
59103;BME280;43999;51.660;5.616;2022-11-13T10:29:20;102112.94;;;16.41;73.81
59103;BME280;43999;51.660;5.616;2022-11-13T10:32:28;102112.28;;;16.82;70.92
59103;BME280;43999;51.660;5.616;2022-11-13T10:38:42;102108.63;;;17.43;65.74
59103;BME280;43999;51.660;5.616;2022-11-13T10:41:29;102100.69;;;17.43;64.99
59103;BME280;43999;51.660;5.616;2022-11-13T10:44:32;102094.81;;;17.37;61.96
59103;BME280;43999;51.660;5.616;2022-11-13T10:47:22;102095.50;;;17.27;61.62
59103;BME280;43999;51.660;5.616;2022-11-13T10:50:31;102084.06;;;17.12;60.59
59103;BME280;43999;51.660;5.616;2022-11-13T10:53:18;102089.91;;;16.88;60.48
59103;BME280;43999;51.660;5.616;2022-11-13T10:56:40;102087.59;;;16.67;60.98
59103;BME280;43999;51.660;5.616;2022-11-13T10:59:25;102075.19;;;16.54;61.61
59103;BME280;43999;51.660;5.616;2022-11-13T11:02:26;102077.25;;;16.48;61.51
59103;BME280;43999;51.660;5.616;2022-11-13T11:05:22;102069.97;;;16.52;61.62
59103;BME280;43999;51.660;5.616;2022-11-13T11:08:09;102071.31;;;16.59;61.07
59103;BME280;43999;51.660;5.616;2022-11-13T11:11:07;102055.44;;;16.59;60.97
59103;BME280;43999;51.660;5.616;2022-11-13T11:14:33;102054.84;;;16.54;60.61
59103;BME280;43999;51.660;5.616;2022-11-13T11:20:56;102037.69;;;16.61;59.37
59103;BME280;43999;51.660;5.616;2022-11-13T11:24:13;102037.88;;;16.73;59.11
59103;BME280;43999;51.660;5.616;2022-11-13T11:27:16;102032.09;;;16.80;60.48
59103;BME280;43999;51.660;5.616;2022-11-13T11:30:22;102041.75;;;16.81;59.36
59103;BME280;43999;51.660;5.616;2022-11-13T11:33:22;102037.66;;;16.92;60.91
59103;BME280;43999;51.660;5.616;2022-11-13T11:36:34;102031.88;;;16.99;58.93
59103;BME280;43999;51.660;5.616;2022-11-13T11:39:46;102031.28;;;16.94;58.30
59103;BME280;43999;51.660;5.616;2022-11-13T11:45:46;102024.50;;;16.90;57.61
59103;BME280;43999;51.660;5.616;2022-11-13T11:48:33;102014.84;;;16.89;57.17
59103;BME280;43999;51.660;5.616;2022-11-13T11:54:41;102015.75;;;16.74;57.33
59103;BME280;43999;51.660;5.616;2022-11-13T11:57:50;102002.91;;;16.82;57.99
59103;BME280;43999;51.660;5.616;2022-11-13T12:05:19;101994.31;;;16.78;57.97
59103;BME280;43999;51.660;5.616;2022-11-13T12:11:35;101982.38;;;16.71;58.37
59103;BME280;43999;51.660;5.616;2022-11-13T12:34:50;101953.84;;;16.76;56.51
59103;BME280;43999;51.660;5.616;2022-11-13T12:42:12;101938.91;;;17.04;56.87
59103;BME280;43999;51.660;5.616;2022-11-13T12:45:14;101948.41;;;17.48;56.55
59103;BME280;43999;51.660;5.616;2022-11-13T12:48:43;101930.63;;;17.90;55.86
59103;BME280;43999;51.660;5.616;2022-11-13T12:51:39;101931.50;;;18.42;53.57
59103;BME280;43999;51.660;5.616;2022-11-13T12:54:35;101926.91;;;18.70;52.28
59103;BME280;43999;51.660;5.616;2022-11-13T12:57:23;101923.72;;;19.15;51.59
59103;BME280;43999;51.660;5.616;2022-11-13T13:00:27;101916.53;;;19.52;50.12
59103;BME280;43999;51.660;5.616;2022-11-13T13:07:21;101911.56;;;19.48;49.31
59103;BME280;43999;51.660;5.616;2022-11-13T13:14:15;101903.88;;;19.08;49.48
59103;BME280;43999;51.660;5.616;2022-11-13T13:17:21;101891.88;;;19.02;49.09
59103;BME280;43999;51.660;5.616;2022-11-13T13:23:03;101886.28;;;19.42;48.13
59103;BME280;43999;51.660;5.616;2022-11-13T13:26:22;101875.25;;;19.71;47.69
59103;BME280;43999;51.660;5.616;2022-11-13T13:29:24;101868.69;;;19.99;47.57
59103;BME280;43999;51.660;5.616;2022-11-13T13:32:47;101851.88;;;19.99;46.25
59103;BME280;43999;51.660;5.616;2022-11-13T13:45:55;101830.22;;;18.49;48.05
59103;BME280;43999;51.660;5.616;2022-11-13T13:48:48;101825.91;;;18.35;49.31
59103;BME280;43999;51.660;5.616;2022-11-13T13:51:43;101826.84;;;18.34;48.94
59103;BME280;43999;51.660;5.616;2022-11-13T13:54:32;101828.78;;;18.32;48.79
59103;BME280;43999;51.660;5.616;2022-11-13T13:57:21;101832.13;;;18.59;48.93
59103;BME280;43999;51.660;5.616;2022-11-13T14:00:16;101825.53;;;18.52;49.17
59103;BME280;43999;51.660;5.616;2022-11-13T14:03:18;101831.84;;;18.38;49.35
59103;BME280;43999;51.660;5.616;2022-11-13T14:06:21;101818.28;;;18.30;50.21
59103;BME280;43999;51.660;5.616;2022-11-13T14:09:16;101827.53;;;18.12;50.27
59103;BME280;43999;51.660;5.616;2022-11-13T14:12:15;101819.66;;;17.84;50.44
59103;BME280;43999;51.660;5.616;2022-11-13T14:15:04;101825.59;;;17.75;50.99
59103;BME280;43999;51.660;5.616;2022-11-13T14:18:15;101826.53;;;17.48;50.95
59103;BME280;43999;51.660;5.616;2022-11-13T14:21:15;101818.97;;;17.29;52.58
59103;BME280;43999;51.660;5.616;2022-11-13T14:24:35;101823.97;;;17.47;52.74
59103;BME280;43999;51.660;5.616;2022-11-13T14:27:31;101811.88;;;17.30;53.18
59103;BME280;43999;51.660;5.616;2022-11-13T14:30:23;101814.78;;;17.12;52.70
59103;BME280;43999;51.660;5.616;2022-11-13T14:36:29;101817.59;;;16.82;54.32
59103;BME280;43999;51.660;5.616;2022-11-13T14:39:29;101814.56;;;16.61;54.71
59103;BME280;43999;51.660;5.616;2022-11-13T14:42:44;101805.25;;;16.41;55.47
59103;BME280;43999;51.660;5.616;2022-11-13T14:45:33;101805.44;;;16.23;55.79
59103;BME280;43999;51.660;5.616;2022-11-13T14:48:26;101800.34;;;16.06;56.00
59103;BME280;43999;51.660;5.616;2022-11-13T14:51:53;101795.25;;;15.88;56.65
59103;BME280;43999;51.660;5.616;2022-11-13T14:54:39;101804.00;;;15.74;57.65
59103;BME280;43999;51.660;5.616;2022-11-13T14:57:49;101803.28;;;15.56;57.85
59103;BME280;43999;51.660;5.616;2022-11-13T15:00:36;101798.75;;;15.44;58.30
59103;BME280;43999;51.660;5.616;2022-11-13T15:03:24;101799.06;;;15.23;59.01
59103;BME280;43999;51.660;5.616;2022-11-13T15:06:24;101797.41;;;15.06;59.37
59103;BME280;43999;51.660;5.616;2022-11-13T15:09:14;101783.63;;;14.85;59.83
59103;BME280;43999;51.660;5.616;2022-11-13T15:12:01;101775.56;;;14.73;60.16
59103;BME280;43999;51.660;5.616;2022-11-13T15:14:47;101785.94;;;14.60;60.38
59103;BME280;43999;51.660;5.616;2022-11-13T15:17:33;101783.16;;;14.47;61.36
59103;BME280;43999;51.660;5.616;2022-11-13T15:20:25;101776.91;;;14.32;61.06
59103;BME280;43999;51.660;5.616;2022-11-13T15:23:14;101775.78;;;14.20;61.21
59103;BME280;43999;51.660;5.616;2022-11-13T15:26:00;101781.56;;;14.11;60.48
59103;BME280;43999;51.660;5.616;2022-11-13T15:28:46;101778.56;;;14.01;60.42
59103;BME280;43999;51.660;5.616;2022-11-13T15:31:39;101774.72;;;13.91;60.97
59103;BME280;43999;51.660;5.616;2022-11-13T15:34:27;101776.91;;;13.83;60.40
59103;BME280;43999;51.660;5.616;2022-11-13T15:37:14;101780.88;;;13.74;61.49
59103;BME280;43999;51.660;5.616;2022-11-13T15:40:01;101772.59;;;13.64;61.55
59103;BME280;43999;51.660;5.616;2022-11-13T15:42:48;101770.38;;;13.56;61.71
59103;BME280;43999;51.660;5.616;2022-11-13T15:45:34;101769.06;;;13.48;62.27
59103;BME280;43999;51.660;5.616;2022-11-13T15:48:25;101766.97;;;13.37;62.37
59103;BME280;43999;51.660;5.616;2022-11-13T15:51:33;101764.69;;;13.29;63.56
59103;BME280;43999;51.660;5.616;2022-11-13T15:54:30;101767.03;;;13.18;63.36
59103;BME280;43999;51.660;5.616;2022-11-13T15:57:22;101756.19;;;13.06;63.61
59103;BME280;43999;51.660;5.616;2022-11-13T16:00:19;101753.16;;;12.97;63.85
59103;BME280;43999;51.660;5.616;2022-11-13T16:03:10;101750.91;;;12.89;63.77
59103;BME280;43999;51.660;5.616;2022-11-13T16:05:59;101750.41;;;12.81;64.75
59103;BME280;43999;51.660;5.616;2022-11-13T16:08:46;101738.66;;;12.70;64.15
59103;BME280;43999;51.660;5.616;2022-11-13T16:11:33;101736.47;;;12.61;64.79
59103;BME280;43999;51.660;5.616;2022-11-13T16:14:19;101725.47;;;12.53;65.28
59103;BME280;43999;51.660;5.616;2022-11-13T16:17:15;101727.59;;;12.45;66.27
59103;BME280;43999;51.660;5.616;2022-11-13T16:20:08;101722.78;;;12.35;66.18